createdAt,value
2023-05-01T00:01:00.244Z,2.51
2023-05-01T00:03:28.019Z,2.47
2023-05-01T00:06:05.670Z,2.22
2023-05-01T00:08:33.207Z,2.55
2023-05-01T00:11:09.801Z,2.48
2023-05-01T00:13:37.240Z,2.27
2023-05-01T00:16:09.096Z,2.17
2023-05-01T00:18:36.692Z,2.27
2023-05-01T00:21:03.853Z,1.85
2023-05-01T00:23:31.278Z,2.36
2023-05-01T00:25:58.434Z,2.52
2023-05-01T00:28:25.790Z,2.71
2023-05-01T00:30:52.770Z,2.77
2023-05-01T00:33:20.243Z,2.57
2023-05-01T00:35:47.958Z,2.46
2023-05-01T00:38:15.282Z,2.37
2023-05-01T00:40:46.294Z,2.15
2023-05-01T00:43:14.111Z,2.32
2023-05-01T00:45:44.770Z,2.16
2023-05-01T00:48:12.357Z,2.79
2023-05-01T00:50:39.876Z,2.79
2023-05-01T00:53:07.688Z,2.28
2023-05-01T00:55:35.999Z,2.10
2023-05-01T00:58:04.666Z,2.20
2023-05-01T01:00:32.192Z,2.05
2023-05-01T01:02:59.674Z,1.94
2023-05-01T01:05:29.483Z,2.60
2023-05-01T01:07:56.701Z,2.73
2023-05-01T01:10:35.873Z,3.05
2023-05-01T01:13:19.361Z,2.76
2023-05-01T01:15:53.250Z,2.93
2023-05-01T01:18:49.128Z,3.23
2023-05-01T01:21:20.462Z,2.70
2023-05-01T01:24:04.174Z,2.85
2023-05-01T01:27:11.305Z,2.32
2023-05-01T01:29:58.016Z,2.62
2023-05-01T01:32:49.977Z,2.99
2023-05-01T01:35:20.911Z,2.37
2023-05-01T01:37:54.757Z,2.58
2023-05-01T01:40:39.742Z,2.11
2023-05-01T01:43:08.219Z,2.01
2023-05-01T01:45:45.944Z,2.31
2023-05-01T01:48:18.155Z,2.71
2023-05-01T01:50:46.829Z,2.62
2023-05-01T01:53:20.600Z,2.80
2023-05-01T01:55:49.081Z,3.44
2023-05-01T01:58:18.244Z,2.79
2023-05-01T02:00:46.295Z,2.89
2023-05-01T02:03:15.260Z,3.09
2023-05-01T02:05:44.253Z,3.24
2023-05-01T02:08:12.219Z,4.03
2023-05-01T02:10:41.570Z,3.77
2023-05-01T02:13:09.439Z,3.68
2023-05-01T02:15:39.037Z,3.72
2023-05-01T02:18:06.866Z,3.35
2023-05-01T02:20:35.108Z,3.29
2023-05-01T02:23:04.349Z,3.43
2023-05-01T02:25:35.519Z,3.21
2023-05-01T02:28:16.398Z,2.86
2023-05-01T02:30:45.293Z,2.89
2023-05-01T02:33:12.931Z,2.69
2023-05-01T02:35:47.148Z,2.52
2023-05-01T02:38:20.259Z,2.42
2023-05-01T02:40:54.458Z,2.26
2023-05-01T02:43:22.937Z,2.36
2023-05-01T02:45:53.140Z,2.70
2023-05-01T02:48:28.340Z,3.08
2023-05-01T02:50:57.130Z,3.34
2023-05-01T02:53:24.484Z,3.46
2023-05-01T02:55:57.832Z,3.55
2023-05-01T02:58:25.028Z,3.37
2023-05-01T03:00:52.331Z,3.45
2023-05-01T03:03:20.310Z,3.29
2023-05-01T03:05:47.833Z,3.31
2023-05-01T03:08:15.163Z,3.37
2023-05-01T03:10:43.204Z,3.40
2023-05-01T03:13:13.604Z,3.41
2023-05-01T03:15:41.580Z,3.89
2023-05-01T03:18:10.016Z,3.48
2023-05-01T03:20:37.551Z,3.31
2023-05-01T03:23:04.772Z,3.39
2023-05-01T03:25:33.528Z,3.42
2023-05-01T03:28:00.999Z,3.44
2023-05-01T03:30:33.855Z,3.43
2023-05-01T03:33:03.511Z,3.14
2023-05-01T03:35:34.144Z,3.08
2023-05-01T03:38:02.591Z,3.00
2023-05-01T03:40:49.314Z,3.13
2023-05-01T03:43:53.015Z,3.02
2023-05-01T03:46:35.539Z,3.17
2023-05-01T03:49:04.036Z,3.12
2023-05-01T03:51:36.163Z,3.05
2023-05-01T03:54:03.847Z,3.04
2023-05-01T03:56:40.903Z,3.13
2023-05-01T03:59:07.993Z,3.46
2023-05-01T04:01:36.292Z,3.23
2023-05-01T04:04:05.030Z,3.48
2023-05-01T04:06:32.980Z,3.50
2023-05-01T04:09:00.111Z,3.50
2023-05-01T04:11:27.685Z,3.56
2023-05-01T04:13:54.774Z,3.79
2023-05-01T04:16:22.251Z,3.72
2023-05-01T04:18:49.483Z,3.74
2023-05-01T04:21:18.746Z,3.77
2023-05-01T04:23:49.804Z,3.79
2023-05-01T04:26:19.354Z,4.02
2023-05-01T04:28:47.846Z,4.49
2023-05-01T04:31:19.599Z,4.47
2023-05-01T04:33:46.915Z,4.51
2023-05-01T04:36:14.735Z,4.41
2023-05-01T04:38:42.509Z,4.66
2023-05-01T04:41:10.204Z,4.70
2023-05-01T04:43:38.041Z,4.79
2023-05-01T04:46:07.486Z,4.95
2023-05-01T04:48:35.991Z,5.03
2023-05-01T04:51:04.125Z,5.39
2023-05-01T04:53:34.602Z,5.66
2023-05-01T04:56:03.992Z,5.89
2023-05-01T04:58:33.180Z,6.05
2023-05-01T05:01:07.508Z,6.47
2023-05-01T05:03:35.564Z,6.23
2023-05-01T05:06:03.981Z,6.21
2023-05-01T05:08:31.434Z,6.63
2023-05-01T05:11:09.339Z,6.62
2023-05-01T05:13:46.564Z,6.37
2023-05-01T05:16:14.783Z,6.50
2023-05-01T05:18:43.672Z,6.60
2023-05-01T05:21:12.176Z,7.15
2023-05-01T05:23:45.369Z,6.97
2023-05-01T05:26:12.723Z,7.30
2023-05-01T05:28:40.907Z,7.37
2023-05-01T05:31:12.413Z,7.50
2023-05-01T05:33:39.420Z,7.40
2023-05-01T05:36:07.500Z,7.73
2023-05-01T05:39:12.556Z,7.88
2023-05-01T05:41:40.318Z,7.91
2023-05-01T05:44:07.476Z,8.17
2023-05-01T05:46:36.126Z,8.12
2023-05-01T05:49:05.359Z,8.09
2023-05-01T05:51:34.535Z,8.24
2023-05-01T05:54:02.416Z,7.81
2023-05-01T05:56:35.945Z,8.64
2023-05-01T05:59:04.648Z,8.08
2023-05-01T06:01:32.815Z,8.30
2023-05-01T06:04:00.031Z,8.90
2023-05-01T06:06:29.122Z,8.32
2023-05-01T06:08:56.390Z,8.17
2023-05-01T06:11:23.844Z,8.07
2023-05-01T06:13:51.517Z,8.70
2023-05-01T06:16:19.341Z,8.57
2023-05-01T06:18:48.011Z,8.28
2023-05-01T06:21:17.552Z,9.02
2023-05-01T06:23:45.136Z,8.96
2023-05-01T06:26:26.895Z,8.69
2023-05-01T06:28:59.436Z,8.66
2023-05-01T06:31:29.981Z,8.70
2023-05-01T06:33:58.181Z,9.10
2023-05-01T06:36:33.296Z,8.88
2023-05-01T06:39:01.697Z,8.98
2023-05-01T06:41:32.650Z,8.93
2023-05-01T06:44:00.040Z,8.87
2023-05-01T06:46:27.690Z,9.07
2023-05-01T06:48:55.024Z,8.48
2023-05-01T06:51:23.100Z,8.88
2023-05-01T06:53:50.495Z,8.83
2023-05-01T06:56:18.407Z,9.85
2023-05-01T06:58:45.844Z,9.01
2023-05-01T07:01:13.626Z,9.42
2023-05-01T07:03:40.918Z,9.11
2023-05-01T07:06:08.587Z,9.19
2023-05-01T07:08:36.078Z,10.01
2023-05-01T07:11:06.883Z,8.89
2023-05-01T07:13:35.548Z,9.43
2023-05-01T07:16:03.866Z,9.85
2023-05-01T07:18:31.334Z,10.31
2023-05-01T07:20:58.692Z,9.64
2023-05-01T07:23:25.984Z,9.65
2023-05-01T07:25:53.721Z,9.61
2023-05-01T07:28:21.919Z,9.51
2023-05-01T07:30:49.826Z,9.98
2023-05-01T07:33:17.247Z,9.20
2023-05-01T07:35:49.748Z,10.01
2023-05-01T07:38:18.437Z,9.95
2023-05-01T07:41:06.923Z,9.96
2023-05-01T07:43:34.500Z,9.65
2023-05-01T07:46:02.179Z,10.42
2023-05-01T07:48:29.593Z,9.33
2023-05-01T07:50:57.099Z,10.72
2023-05-01T07:53:24.313Z,10.68
2023-05-01T07:55:51.765Z,11.44
2023-05-01T07:58:19.316Z,10.96
2023-05-01T08:00:48.213Z,11.45
2023-05-01T08:03:15.928Z,9.95
2023-05-01T08:05:43.669Z,10.97
2023-05-01T08:08:13.151Z,11.59
2023-05-01T08:10:40.716Z,11.48
2023-05-01T08:13:07.792Z,11.09
2023-05-01T08:15:37.594Z,11.35
2023-05-01T08:18:05.495Z,11.86
2023-05-01T08:20:32.986Z,10.87
2023-05-01T08:23:00.190Z,11.73
2023-05-01T08:25:27.858Z,10.57
2023-05-01T08:27:55.041Z,11.43
2023-05-01T08:30:22.612Z,12.48
2023-05-01T08:32:49.843Z,11.60
2023-05-01T08:35:17.678Z,11.62
2023-05-01T08:37:44.884Z,11.47
2023-05-01T08:40:13.122Z,11.50
2023-05-01T08:42:40.822Z,12.13
2023-05-01T08:45:09.727Z,12.53
2023-05-01T08:47:39.325Z,12.09
2023-05-01T08:50:11.970Z,13.68
2023-05-01T08:52:43.193Z,13.54
2023-05-01T08:55:15.813Z,12.48
2023-05-01T08:57:46.140Z,12.58
2023-05-01T09:00:22.583Z,12.64
2023-05-01T09:02:50.974Z,12.96
2023-05-01T09:05:20.623Z,12.21
2023-05-01T09:07:48.893Z,12.68
2023-05-01T09:10:19.087Z,13.68
2023-05-01T09:12:53.904Z,12.87
2023-05-01T09:15:21.661Z,12.79
2023-05-01T09:17:48.887Z,13.05
2023-05-01T09:20:18.639Z,13.22
2023-05-01T09:22:46.017Z,13.17
2023-05-01T09:25:13.417Z,13.59
2023-05-01T09:27:40.860Z,13.09
2023-05-01T09:30:09.098Z,14.01
2023-05-01T09:32:36.683Z,13.89
2023-05-01T09:35:14.624Z,15.07
2023-05-01T09:37:41.858Z,13.84
2023-05-01T09:40:14.505Z,12.80
2023-05-01T09:42:49.126Z,13.51
2023-05-01T09:45:19.015Z,13.49
2023-05-01T09:47:47.098Z,13.72
2023-05-01T09:50:35.445Z,13.56
2023-05-01T09:53:05.139Z,13.78
2023-05-01T09:55:33.539Z,16.39
2023-05-01T09:58:00.956Z,14.46
2023-05-01T10:00:28.470Z,13.94
2023-05-01T10:02:55.938Z,14.74
2023-05-01T10:05:24.664Z,14.05
2023-05-01T10:08:03.696Z,15.38
2023-05-01T10:10:31.441Z,14.77
2023-05-01T10:13:17.062Z,14.25
2023-05-01T10:15:46.900Z,14.15
2023-05-01T10:18:14.767Z,14.35
2023-05-01T10:20:42.775Z,15.32
2023-05-01T10:23:11.075Z,16.40
2023-05-01T10:25:41.002Z,16.46
2023-05-01T10:28:09.621Z,14.74
2023-05-01T10:30:38.356Z,15.95
2023-05-01T10:33:05.552Z,15.09
2023-05-01T10:35:38.336Z,15.87
2023-05-01T10:38:11.797Z,16.95
2023-05-01T10:40:39.248Z,16.33
2023-05-01T10:43:29.000Z,15.61
2023-05-01T10:46:21.383Z,14.76
2023-05-01T10:48:51.498Z,14.36
2023-05-01T10:51:28.282Z,15.72
2023-05-01T10:54:14.277Z,17.26
2023-05-01T10:56:43.681Z,16.85
2023-05-01T10:59:12.836Z,15.98
2023-05-01T11:01:40.319Z,16.21
2023-05-01T11:04:28.114Z,16.70
2023-05-01T11:07:05.493Z,17.33
2023-05-01T11:09:42.968Z,17.62
2023-05-01T11:12:12.922Z,16.40
2023-05-01T11:15:03.124Z,17.14
2023-05-01T11:17:43.010Z,17.52
2023-05-01T11:20:33.862Z,16.62
2023-05-01T11:23:01.802Z,17.36
2023-05-01T11:25:31.198Z,16.79
2023-05-01T11:28:01.989Z,16.27
2023-05-01T11:30:42.269Z,16.76
2023-05-01T11:33:10.895Z,17.19
2023-05-01T11:35:39.234Z,16.86
2023-05-01T11:38:06.597Z,16.22
2023-05-01T11:40:35.013Z,17.81
2023-05-01T11:43:02.596Z,18.05
2023-05-01T11:45:31.165Z,16.21
2023-05-01T11:48:02.001Z,17.35
2023-05-01T11:50:36.172Z,15.96
2023-05-01T11:53:11.837Z,17.84
2023-05-01T11:55:40.216Z,18.40
2023-05-01T11:58:08.310Z,18.61
2023-05-01T12:00:40.296Z,18.14
2023-05-01T12:03:08.843Z,17.08
2023-05-01T12:05:38.665Z,17.86
2023-05-01T12:08:23.222Z,18.15
2023-05-01T12:10:58.308Z,17.90
2023-05-01T12:13:29.753Z,18.18
2023-05-01T12:15:57.370Z,17.60
2023-05-01T12:18:25.219Z,19.02
2023-05-01T12:20:54.277Z,19.01
2023-05-01T12:23:34.603Z,19.40
2023-05-01T12:26:03.411Z,16.97
2023-05-01T12:28:31.039Z,17.58
2023-05-01T12:31:05.210Z,17.44
2023-05-01T12:33:33.323Z,18.57
2023-05-01T12:36:11.726Z,17.49
2023-05-01T12:38:39.222Z,18.98
2023-05-01T12:41:08.905Z,18.00
2023-05-01T12:43:38.043Z,19.39
2023-05-01T12:46:06.731Z,18.77
2023-05-01T12:48:39.309Z,18.40
2023-05-01T12:51:07.908Z,19.00
2023-05-01T12:53:43.744Z,18.37
2023-05-01T12:56:24.471Z,18.82
2023-05-01T12:58:53.692Z,17.97
2023-05-01T13:01:28.557Z,19.53
2023-05-01T13:03:58.107Z,19.07
2023-05-01T13:06:36.002Z,18.94
2023-05-01T13:09:12.906Z,18.06
2023-05-01T13:11:40.273Z,18.30
2023-05-01T13:14:09.291Z,18.63
2023-05-01T13:16:46.803Z,19.69
2023-05-01T13:19:25.598Z,19.28
2023-05-01T13:21:52.818Z,19.73
2023-05-01T13:24:21.008Z,18.96
2023-05-01T13:26:57.201Z,18.78
2023-05-01T13:29:26.935Z,19.89
2023-05-01T13:31:54.329Z,18.46
2023-05-01T13:34:27.739Z,19.68
2023-05-01T13:36:56.186Z,19.20
2023-05-01T13:39:24.149Z,18.36
2023-05-01T13:41:52.437Z,18.40
2023-05-01T13:44:22.580Z,18.68
2023-05-01T13:46:49.988Z,19.35
2023-05-01T13:49:21.761Z,19.32
2023-05-01T13:51:48.947Z,18.81
2023-05-01T13:54:17.131Z,18.94
2023-05-01T13:56:44.285Z,18.03
2023-05-01T13:59:11.750Z,19.83
2023-05-01T14:01:46.233Z,20.40
2023-05-01T14:04:17.831Z,19.41
2023-05-01T14:06:48.587Z,19.20
2023-05-01T14:09:19.418Z,18.55
2023-05-01T14:11:48.213Z,19.03
2023-05-01T14:14:17.189Z,19.11
2023-05-01T14:16:49.061Z,19.30
2023-05-01T14:19:18.303Z,19.78
2023-05-01T14:21:45.596Z,19.94
2023-05-01T14:24:16.015Z,18.81
2023-05-01T14:26:43.828Z,19.70
2023-05-01T14:29:24.018Z,19.46
2023-05-01T14:31:52.630Z,18.41
2023-05-01T14:34:20.688Z,20.08
2023-05-01T14:36:48.066Z,19.76
2023-05-01T14:39:18.323Z,18.68
2023-05-01T14:41:45.506Z,19.15
2023-05-01T14:44:16.184Z,20.09
2023-05-01T14:46:47.116Z,20.26
2023-05-01T14:49:20.173Z,19.43
2023-05-01T14:51:48.199Z,18.32
2023-05-01T14:54:16.306Z,18.85
2023-05-01T14:56:44.199Z,19.13
2023-05-01T14:59:12.505Z,18.46
2023-05-01T15:01:40.282Z,19.75
2023-05-01T15:04:08.128Z,18.79
2023-05-01T15:06:35.558Z,19.56
2023-05-01T15:09:05.312Z,19.04
2023-05-01T15:11:32.728Z,18.46
2023-05-01T15:14:00.298Z,19.02
2023-05-01T15:16:28.221Z,18.80
2023-05-01T15:18:56.284Z,18.83
2023-05-01T15:21:23.745Z,18.72
2023-05-01T15:23:52.755Z,20.10
2023-05-01T15:26:21.459Z,19.30
2023-05-01T15:28:48.847Z,19.26
2023-05-01T15:31:16.255Z,19.78
2023-05-01T15:33:45.162Z,19.45
2023-05-01T15:36:12.778Z,19.14
2023-05-01T15:38:40.372Z,19.60
2023-05-01T15:41:08.231Z,18.88
2023-05-01T15:43:36.038Z,19.31
2023-05-01T15:46:03.629Z,19.81
2023-05-01T15:48:31.270Z,18.44
2023-05-01T15:50:58.526Z,18.79
2023-05-01T15:53:26.074Z,18.43
2023-05-01T15:55:57.807Z,19.11
2023-05-01T15:58:25.181Z,17.42
2023-05-01T16:00:52.921Z,17.55
2023-05-01T16:03:20.779Z,18.12
2023-05-01T16:05:48.261Z,18.17
2023-05-01T16:08:17.745Z,17.90
2023-05-01T16:10:45.379Z,18.33
2023-05-01T16:13:13.547Z,17.96
2023-05-01T16:15:40.794Z,18.04
2023-05-01T16:18:08.376Z,18.17
2023-05-01T16:20:42.796Z,17.32
2023-05-01T16:23:12.228Z,17.77
2023-05-01T16:25:43.367Z,17.67
2023-05-01T16:28:17.092Z,17.77
2023-05-01T16:30:45.682Z,17.33
2023-05-01T16:33:18.925Z,16.97
2023-05-01T16:35:50.239Z,17.00
2023-05-01T16:38:18.706Z,16.96
2023-05-01T16:40:48.258Z,16.39
2023-05-01T16:43:15.750Z,16.80
2023-05-01T16:45:42.923Z,16.72
2023-05-01T16:48:10.687Z,16.37
2023-05-01T16:50:41.524Z,16.41
2023-05-01T16:53:09.061Z,16.08
2023-05-01T16:55:36.297Z,16.68
2023-05-01T16:58:03.744Z,16.45
2023-05-01T17:00:31.385Z,16.37
2023-05-01T17:02:59.109Z,16.08
2023-05-01T17:05:26.569Z,16.12
2023-05-01T17:07:54.296Z,16.10
2023-05-01T17:10:21.414Z,15.70
2023-05-01T17:12:48.877Z,16.15
2023-05-01T17:15:16.193Z,15.82
2023-05-01T17:17:43.868Z,15.77
2023-05-01T17:20:12.621Z,15.82
2023-05-01T17:22:40.849Z,15.61
2023-05-01T17:25:08.533Z,15.72
2023-05-01T17:27:37.674Z,15.36
2023-05-01T17:30:05.536Z,15.70
2023-05-01T17:32:36.876Z,15.15
2023-05-01T17:35:05.482Z,15.13
2023-05-01T17:37:33.364Z,15.28
2023-05-01T17:40:01.595Z,15.25
2023-05-01T17:42:29.899Z,15.04
2023-05-01T17:44:57.156Z,14.63
2023-05-01T17:47:26.050Z,14.77
2023-05-01T17:49:53.906Z,14.62
2023-05-01T17:52:21.775Z,14.44
2023-05-01T17:54:49.003Z,14.37
2023-05-01T17:57:16.430Z,14.10
2023-05-01T17:59:43.564Z,14.24
2023-05-01T18:02:11.096Z,14.19
2023-05-01T18:04:38.588Z,14.38
2023-05-01T18:07:06.416Z,14.43
2023-05-01T18:09:33.654Z,14.66
2023-05-01T18:12:01.326Z,14.59
2023-05-01T18:14:28.734Z,14.03
2023-05-01T18:16:56.333Z,14.00
2023-05-01T18:19:24.864Z,14.35
2023-05-01T18:21:52.347Z,14.37
2023-05-01T18:24:19.804Z,14.11
2023-05-01T18:26:47.412Z,13.89
2023-05-01T18:29:15.216Z,13.61
2023-05-01T18:31:42.799Z,13.86
2023-05-01T18:34:12.258Z,13.93
2023-05-01T18:36:39.725Z,13.78
2023-05-01T18:39:07.081Z,14.03
2023-05-01T18:41:35.001Z,14.15
2023-05-01T18:44:04.175Z,14.07
2023-05-01T18:46:32.409Z,13.63
2023-05-01T18:49:00.036Z,13.37
2023-05-01T18:51:27.854Z,13.47
2023-05-01T18:53:55.150Z,13.78
2023-05-01T18:56:24.293Z,13.56
2023-05-01T18:58:51.593Z,13.72
2023-05-01T19:01:20.783Z,13.70
2023-05-01T19:03:48.509Z,13.45
2023-05-01T19:06:16.492Z,13.10
2023-05-01T19:08:44.081Z,13.51
2023-05-01T19:11:11.920Z,13.27
2023-05-01T19:13:39.569Z,13.25
2023-05-01T19:16:07.393Z,13.01
2023-05-01T19:18:37.472Z,12.66
2023-05-01T19:21:06.047Z,12.45
2023-05-01T19:23:35.633Z,12.48
2023-05-01T19:26:04.521Z,12.27
2023-05-01T19:28:32.569Z,12.34
2023-05-01T19:31:00.779Z,12.28
2023-05-01T19:33:28.746Z,12.60
2023-05-01T19:35:56.680Z,12.57
2023-05-01T19:38:24.261Z,12.08
2023-05-01T19:40:51.827Z,12.17
2023-05-01T19:43:19.284Z,12.06
2023-05-01T19:45:47.305Z,11.83
2023-05-01T19:48:15.169Z,11.94
2023-05-01T19:50:50.809Z,12.24
2023-05-01T19:53:18.682Z,12.15
2023-05-01T19:55:48.078Z,11.90
2023-05-01T19:58:15.967Z,11.83
2023-05-01T20:00:44.508Z,11.91
2023-05-01T20:03:12.495Z,11.99
2023-05-01T20:05:40.478Z,11.99
2023-05-01T20:08:08.108Z,12.24
2023-05-01T20:10:35.757Z,11.57
2023-05-01T20:13:10.139Z,11.43
2023-05-01T20:15:41.267Z,11.44
2023-05-01T20:18:09.592Z,11.69
2023-05-01T20:20:37.978Z,11.51
2023-05-01T20:23:13.944Z,11.75
2023-05-01T20:25:42.771Z,11.00
2023-05-01T20:28:13.083Z,11.23
2023-05-01T20:30:43.700Z,11.17
2023-05-01T20:33:11.639Z,11.08
2023-05-01T20:35:39.496Z,11.03
2023-05-01T20:38:06.923Z,11.11
2023-05-01T20:40:36.939Z,11.33
2023-05-01T20:43:04.097Z,11.21
2023-05-01T20:45:32.240Z,11.31
2023-05-01T20:48:00.245Z,11.34
2023-05-01T20:50:28.157Z,10.83
2023-05-01T20:52:56.383Z,10.96
2023-05-01T20:55:24.365Z,11.18
2023-05-01T20:57:51.811Z,10.72
2023-05-01T21:00:19.425Z,10.50
2023-05-01T21:02:46.598Z,10.22
2023-05-01T21:05:14.289Z,9.88
2023-05-01T21:07:41.638Z,9.60
2023-05-01T21:10:10.965Z,9.98
2023-05-01T21:12:38.406Z,10.09
2023-05-01T21:15:06.412Z,10.20
2023-05-01T21:17:35.808Z,10.43
2023-05-01T21:20:14.633Z,10.29
2023-05-01T21:22:45.452Z,10.75
2023-05-01T21:25:16.150Z,10.41
2023-05-01T21:27:43.412Z,10.05
2023-05-01T21:30:17.502Z,9.84
2023-05-01T21:32:45.047Z,9.39
2023-05-01T21:35:15.996Z,9.40
2023-05-01T21:37:45.101Z,9.25
2023-05-01T21:40:14.601Z,9.04
2023-05-01T21:42:42.400Z,9.54
2023-05-01T21:45:15.505Z,9.75
2023-05-01T21:47:52.108Z,10.34
2023-05-01T21:50:21.279Z,10.54
2023-05-01T21:52:49.916Z,10.07
2023-05-01T21:55:22.418Z,10.19
2023-05-01T21:57:53.385Z,10.34
2023-05-01T22:00:21.493Z,10.29
2023-05-01T22:02:51.121Z,9.82
2023-05-01T22:05:22.472Z,9.92
2023-05-01T22:07:52.120Z,9.88
2023-05-01T22:10:20.187Z,10.12
2023-05-01T22:12:54.926Z,9.95
2023-05-01T22:15:30.742Z,10.20
2023-05-01T22:18:03.595Z,10.11
2023-05-01T22:20:32.388Z,10.40
2023-05-01T22:22:59.676Z,10.62
2023-05-01T22:25:28.545Z,10.15
2023-05-01T22:27:55.515Z,9.72
2023-05-01T22:30:22.935Z,9.67
2023-05-01T22:32:50.091Z,9.69
2023-05-01T22:35:17.651Z,9.97
2023-05-01T22:37:44.770Z,9.87
2023-05-01T22:40:12.356Z,10.26
2023-05-01T22:42:39.544Z,10.03
2023-05-01T22:45:07.187Z,10.19
2023-05-01T22:47:34.444Z,10.63
2023-05-01T22:50:02.144Z,10.85
2023-05-01T22:52:29.791Z,10.89
2023-05-01T22:54:57.867Z,10.97
2023-05-01T22:57:24.938Z,10.97
2023-05-01T22:59:52.255Z,10.59
2023-05-01T23:02:21.521Z,10.50
2023-05-01T23:04:49.139Z,10.38
2023-05-01T23:07:16.329Z,10.64
2023-05-01T23:09:44.374Z,10.96
2023-05-01T23:12:18.328Z,10.87
2023-05-01T23:14:46.952Z,10.99
2023-05-01T23:17:14.958Z,10.84
2023-05-01T23:19:43.704Z,10.94
2023-05-01T23:22:13.078Z,10.99
2023-05-01T23:24:48.112Z,10.75
2023-05-01T23:27:19.719Z,10.89
2023-05-01T23:29:56.559Z,11.02
2023-05-01T23:32:29.465Z,10.94
2023-05-01T23:35:04.252Z,10.91
2023-05-01T23:37:31.357Z,10.91
2023-05-01T23:40:00.086Z,10.96
2023-05-01T23:42:28.252Z,10.98
2023-05-01T23:44:56.555Z,10.86
2023-05-01T23:47:23.782Z,10.89
2023-05-01T23:49:51.492Z,10.91
2023-05-01T23:52:18.545Z,11.14
2023-05-01T23:54:46.007Z,11.03
2023-05-01T23:57:13.004Z,10.84
2023-05-01T23:59:40.484Z,11.05
